createdAt,value
2017-06-21T00:01:39.346Z,10.43
2017-06-21T00:04:07.684Z,9.50
2017-06-21T00:06:35.527Z,8.93
2017-06-21T00:09:03.059Z,8.52
2017-06-21T00:11:30.843Z,8.40
2017-06-21T00:13:58.330Z,7.75
2017-06-21T00:16:26.162Z,7.53
2017-06-21T00:18:53.820Z,7.55
2017-06-21T00:21:21.327Z,7.53
2017-06-21T00:23:48.815Z,7.10
2017-06-21T00:26:17.127Z,7.05
2017-06-21T00:28:45.085Z,6.90
2017-06-21T00:31:12.619Z,6.85
2017-06-21T00:33:40.472Z,6.93
2017-06-21T00:36:08.037Z,7.43
2017-06-21T00:38:35.722Z,7.05
2017-06-21T00:41:03.420Z,7.00
2017-06-21T00:43:30.959Z,7.60
2017-06-21T00:45:58.495Z,6.65
2017-06-21T00:48:26.004Z,6.97
2017-06-21T00:50:54.317Z,7.10
2017-06-21T00:53:22.086Z,6.30
2017-06-21T00:55:49.791Z,7.68
2017-06-21T00:58:17.423Z,6.80
2017-06-21T01:00:44.975Z,6.30
2017-06-21T01:03:12.472Z,6.70
2017-06-21T01:05:40.907Z,6.90
2017-06-21T01:08:08.396Z,6.28
2017-06-21T01:10:36.675Z,6.70
2017-06-21T01:13:04.229Z,6.35
2017-06-21T01:15:32.539Z,6.90
2017-06-21T01:18:00.079Z,6.50
2017-06-21T01:20:27.876Z,6.87
2017-06-21T01:22:55.664Z,7.40
2017-06-21T01:25:23.205Z,6.60
2017-06-21T01:27:50.829Z,7.40
2017-06-21T01:30:18.360Z,6.37
2017-06-21T01:32:46.891Z,6.70
2017-06-21T01:35:14.957Z,6.57
2017-06-21T01:37:42.483Z,6.20
2017-06-21T01:40:10.387Z,6.10
2017-06-21T01:42:38.350Z,6.95
2017-06-21T01:45:05.884Z,6.70
2017-06-21T01:47:33.532Z,7.68
2017-06-21T01:50:01.121Z,6.37
2017-06-21T01:52:28.608Z,6.62
2017-06-21T01:54:56.116Z,7.00
2017-06-21T01:57:24.050Z,6.57
2017-06-21T01:59:52.364Z,6.18
2017-06-21T02:02:20.196Z,6.75
2017-06-21T02:04:48.719Z,6.97
2017-06-21T02:07:16.231Z,7.60
2017-06-21T02:09:44.755Z,6.80
2017-06-21T02:12:12.260Z,7.80
2017-06-21T02:14:39.895Z,7.15
2017-06-21T02:17:08.189Z,6.85
2017-06-21T02:19:35.907Z,7.12
2017-06-21T02:22:03.458Z,7.78
2017-06-21T02:24:30.947Z,6.65
2017-06-21T02:26:58.471Z,6.60
2017-06-21T02:29:26.117Z,6.47
2017-06-21T02:31:53.779Z,6.80
2017-06-21T02:34:21.346Z,7.15
2017-06-21T02:36:48.835Z,7.25
2017-06-21T02:39:16.382Z,6.75
2017-06-21T02:41:43.924Z,7.45
2017-06-21T02:44:11.716Z,7.00
2017-06-21T02:46:39.274Z,8.23
2017-06-21T02:49:06.785Z,8.10
2017-06-21T02:51:34.343Z,7.05
2017-06-21T02:54:01.934Z,7.30
2017-06-21T02:56:29.443Z,6.60
2017-06-21T02:58:56.999Z,7.57
2017-06-21T03:01:24.704Z,6.80
2017-06-21T03:03:52.200Z,6.40
2017-06-21T03:06:20.599Z,5.85
2017-06-21T03:08:48.199Z,6.30
2017-06-21T03:11:15.911Z,7.70
2017-06-21T03:13:43.419Z,6.82
2017-06-21T03:16:10.964Z,6.80
2017-06-21T03:18:38.521Z,6.85
2017-06-21T03:21:06.165Z,6.50
2017-06-21T03:23:33.683Z,7.00
2017-06-21T03:26:01.175Z,6.30
2017-06-21T03:28:28.687Z,7.03
2017-06-21T03:30:56.947Z,6.57
2017-06-21T03:33:24.588Z,7.65
2017-06-21T03:35:52.296Z,5.43
2017-06-21T03:38:19.827Z,6.28
2017-06-21T03:40:47.332Z,6.40
2017-06-21T03:43:14.933Z,7.20
2017-06-21T03:45:42.507Z,6.72
2017-06-21T03:48:10.836Z,6.30
2017-06-21T03:50:39.042Z,6.55
2017-06-21T03:53:06.527Z,5.72
2017-06-21T03:55:34.331Z,7.95
2017-06-21T03:58:01.839Z,6.97
2017-06-21T04:00:30.951Z,7.15
2017-06-21T04:02:59.834Z,6.87
2017-06-21T04:05:29.019Z,6.87
2017-06-21T04:07:58.178Z,6.68
2017-06-21T04:10:27.318Z,6.40
2017-06-21T04:12:56.519Z,7.03
2017-06-21T04:15:25.606Z,7.68
2017-06-21T04:17:54.690Z,7.45
2017-06-21T04:20:23.706Z,7.55
2017-06-21T04:22:52.924Z,7.37
2017-06-21T04:25:22.114Z,7.85
2017-06-21T04:27:50.959Z,7.40
2017-06-21T04:30:19.831Z,7.45
2017-06-21T04:32:48.670Z,7.82
2017-06-21T04:35:17.548Z,8.35
2017-06-21T04:37:46.427Z,7.75
2017-06-21T04:40:15.325Z,7.90
2017-06-21T04:42:44.205Z,7.28
2017-06-21T04:45:13.059Z,8.00
2017-06-21T04:47:42.330Z,7.95
2017-06-21T04:50:11.166Z,9.13
2017-06-21T04:52:40.049Z,7.35
2017-06-21T04:55:08.911Z,7.60
2017-06-21T04:57:37.742Z,8.00
2017-06-21T05:00:06.619Z,8.80
2017-06-21T05:02:35.466Z,8.30
2017-06-21T05:05:04.346Z,8.45
2017-06-21T05:07:33.236Z,9.30
2017-06-21T05:10:02.395Z,8.32
2017-06-21T05:12:31.227Z,7.68
2017-06-21T05:15:00.273Z,9.18
2017-06-21T05:17:29.503Z,7.62
2017-06-21T05:19:58.334Z,7.85
2017-06-21T05:22:27.225Z,7.60
2017-06-21T05:24:56.079Z,6.93
2017-06-21T05:27:23.697Z,6.30
2017-06-21T05:29:51.226Z,6.10
2017-06-21T05:32:19.851Z,6.62
2017-06-21T05:34:47.363Z,6.00
2017-06-21T05:37:15.752Z,5.83
2017-06-21T05:39:43.379Z,5.73
2017-06-21T05:42:10.867Z,5.40
2017-06-21T05:44:38.664Z,5.33
2017-06-21T05:47:06.155Z,5.53
2017-06-21T05:49:33.668Z,5.13
2017-06-21T05:52:01.353Z,5.63
2017-06-21T05:54:28.848Z,5.60
2017-06-21T05:56:56.401Z,4.70
2017-06-21T05:59:24.671Z,4.53
2017-06-21T06:01:52.952Z,4.50
2017-06-21T06:04:21.207Z,4.37
2017-06-21T06:06:48.728Z,4.50
2017-06-21T06:09:16.236Z,4.53
2017-06-21T06:11:44.600Z,5.03
2017-06-21T06:14:12.082Z,4.47
2017-06-21T06:16:39.658Z,5.10
2017-06-21T06:19:07.163Z,5.27
2017-06-21T06:21:34.655Z,5.70
2017-06-21T06:24:02.499Z,5.10
2017-06-21T06:26:30.754Z,5.30
2017-06-21T06:28:58.315Z,4.90
2017-06-21T06:31:26.139Z,5.40
2017-06-21T06:33:53.667Z,4.90
2017-06-21T06:36:21.151Z,5.30
2017-06-21T06:38:48.674Z,4.80
2017-06-21T06:41:16.180Z,4.13
2017-06-21T06:43:43.667Z,4.67
2017-06-21T06:46:12.226Z,5.90
2017-06-21T06:48:39.968Z,4.77
2017-06-21T06:51:07.494Z,4.80
2017-06-21T06:53:34.980Z,4.53
2017-06-21T06:56:02.514Z,4.10
2017-06-21T06:58:30.298Z,4.93
2017-06-21T07:00:57.783Z,4.20
2017-06-21T07:03:25.299Z,4.60
2017-06-21T07:05:52.973Z,4.40
2017-06-21T07:08:20.555Z,4.50
2017-06-21T07:10:48.043Z,3.93
2017-06-21T07:13:16.341Z,4.13
2017-06-21T07:15:43.899Z,4.10
2017-06-21T07:18:11.455Z,4.17
2017-06-21T07:20:39.301Z,4.30
2017-06-21T07:23:07.595Z,3.13
2017-06-21T07:25:35.143Z,3.70
2017-06-21T07:28:02.700Z,4.30
2017-06-21T07:30:30.228Z,2.50
2017-06-21T07:32:57.991Z,3.10
2017-06-21T07:35:26.292Z,3.67
2017-06-21T07:37:53.819Z,2.60
2017-06-21T07:40:21.425Z,2.67
2017-06-21T07:42:49.321Z,2.40
2017-06-21T07:45:16.975Z,2.10
2017-06-21T07:47:44.551Z,2.23
2017-06-21T07:50:12.085Z,2.10
2017-06-21T07:52:39.596Z,2.00
2017-06-21T07:55:08.334Z,2.53
2017-06-21T07:57:35.846Z,2.30
2017-06-21T08:00:03.400Z,2.63
2017-06-21T08:02:31.002Z,2.20
2017-06-21T08:04:58.748Z,2.20
2017-06-21T08:07:26.328Z,3.23
2017-06-21T08:09:54.018Z,2.40
2017-06-21T08:12:22.312Z,2.93
2017-06-21T08:14:53.733Z,2.23
2017-06-21T08:17:22.000Z,2.53
2017-06-21T08:19:49.537Z,2.67
2017-06-21T08:22:17.699Z,2.13
2017-06-21T08:24:45.247Z,2.33
2017-06-21T08:27:12.789Z,2.47
2017-06-21T08:29:40.303Z,1.93
2017-06-21T08:32:08.119Z,2.07
2017-06-21T08:34:35.725Z,2.07
2017-06-21T08:37:03.312Z,2.63
2017-06-21T08:39:31.123Z,2.63
2017-06-21T08:41:58.801Z,2.23
2017-06-21T08:44:26.303Z,1.63
2017-06-21T08:46:53.783Z,1.93
2017-06-21T08:49:21.283Z,2.23
2017-06-21T08:51:49.806Z,2.47
2017-06-21T08:54:17.339Z,2.93
2017-06-21T08:56:44.831Z,2.40
2017-06-21T08:59:12.375Z,2.90
2017-06-21T09:01:39.936Z,2.60
2017-06-21T09:04:07.695Z,3.13
2017-06-21T09:06:35.628Z,3.20
2017-06-21T09:09:03.329Z,3.30
2017-06-21T09:11:30.916Z,3.37
2017-06-21T09:13:58.461Z,2.67
2017-06-21T09:16:25.995Z,3.30
2017-06-21T09:18:53.487Z,3.00
2017-06-21T09:21:21.042Z,2.90
2017-06-21T09:23:48.956Z,3.90
2017-06-21T09:26:16.509Z,3.13
2017-06-21T09:28:44.895Z,2.80
2017-06-21T09:31:12.432Z,2.33
2017-06-21T09:33:40.031Z,3.80
2017-06-21T09:36:07.627Z,3.50
2017-06-21T09:38:35.950Z,3.23
2017-06-21T09:41:03.476Z,3.50
2017-06-21T09:43:31.038Z,3.57
2017-06-21T09:45:58.546Z,3.20
2017-06-21T09:48:26.045Z,4.18
2017-06-21T09:50:53.559Z,3.42
2017-06-21T09:53:21.099Z,3.67
2017-06-21T09:55:48.862Z,4.30
2017-06-21T09:58:16.476Z,3.20
2017-06-21T10:00:51.976Z,3.53
2017-06-21T10:03:19.632Z,3.55
2017-06-21T10:05:47.241Z,3.10
2017-06-21T10:08:15.547Z,4.10
2017-06-21T10:10:43.075Z,3.22
2017-06-21T10:13:10.627Z,4.37
2017-06-21T10:15:38.189Z,4.03
2017-06-21T10:18:06.547Z,3.03
2017-06-21T10:20:34.263Z,4.00
2017-06-21T10:23:01.832Z,3.75
2017-06-21T10:25:29.584Z,3.50
2017-06-21T10:27:57.117Z,3.53
2017-06-21T10:30:24.623Z,3.50
2017-06-21T10:32:52.107Z,3.50
2017-06-21T10:35:19.614Z,4.40
2017-06-21T10:37:47.099Z,4.65
2017-06-21T10:40:14.651Z,4.10
2017-06-21T10:42:42.201Z,4.18
2017-06-21T10:45:11.158Z,4.40
2017-06-21T10:47:39.560Z,4.30
2017-06-21T10:50:07.104Z,3.28
2017-06-21T10:52:34.619Z,3.90
2017-06-21T10:55:02.368Z,4.47
2017-06-21T10:57:30.651Z,4.93
2017-06-21T10:59:59.413Z,4.43
2017-06-21T11:02:26.915Z,4.60
2017-06-21T11:04:54.659Z,4.22
2017-06-21T11:07:22.458Z,3.70
2017-06-21T11:09:49.947Z,3.70
2017-06-21T11:12:17.485Z,4.45
2017-06-21T11:14:44.975Z,3.83
2017-06-21T11:17:13.287Z,3.78
2017-06-21T11:19:41.070Z,4.95
2017-06-21T11:22:08.599Z,6.20
2017-06-21T11:24:36.111Z,5.28
2017-06-21T11:27:03.650Z,6.20
2017-06-21T11:29:31.341Z,4.57
2017-06-21T11:31:59.631Z,4.18
2017-06-21T11:34:27.203Z,4.30
2017-06-21T11:36:54.714Z,4.25
2017-06-21T11:39:22.443Z,4.47
2017-06-21T11:41:50.004Z,3.97
2017-06-21T11:44:17.491Z,3.50
2017-06-21T11:46:45.054Z,3.60
2017-06-21T11:49:12.552Z,3.80
2017-06-21T11:51:40.063Z,4.10
2017-06-21T11:54:07.552Z,2.85
2017-06-21T11:56:35.099Z,3.55
2017-06-21T11:59:03.619Z,4.05
2017-06-21T12:01:31.132Z,3.45
2017-06-21T12:03:59.419Z,4.05
2017-06-21T12:06:26.940Z,3.53
2017-06-21T12:08:54.772Z,3.40
2017-06-21T12:11:22.291Z,4.15
2017-06-21T12:13:49.802Z,3.65
2017-06-21T12:16:17.295Z,5.53
2017-06-21T12:18:45.618Z,4.70
2017-06-21T12:21:13.119Z,4.87
2017-06-21T12:23:41.674Z,6.50
2017-06-21T12:26:09.388Z,4.85
2017-06-21T12:28:36.877Z,5.20
2017-06-21T12:31:04.416Z,4.68
2017-06-21T12:33:31.954Z,4.22
2017-06-21T12:35:59.521Z,4.70
2017-06-21T12:38:27.039Z,4.70
2017-06-21T12:40:55.386Z,4.10
2017-06-21T12:43:22.940Z,4.00
2017-06-21T12:45:50.435Z,4.40
2017-06-21T12:48:18.711Z,4.12
2017-06-21T12:50:46.971Z,3.60
2017-06-21T12:53:15.252Z,4.30
2017-06-21T12:55:43.544Z,4.60
2017-06-21T12:58:11.240Z,4.72
2017-06-21T13:00:38.727Z,4.25
2017-06-21T13:03:06.307Z,4.50
2017-06-21T13:05:33.906Z,4.32
2017-06-21T13:08:01.391Z,4.95
2017-06-21T13:10:29.235Z,4.00
2017-06-21T13:12:56.747Z,5.70
2017-06-21T13:15:25.092Z,5.45
2017-06-21T13:17:52.574Z,3.75
2017-06-21T13:20:20.939Z,5.00
2017-06-21T13:22:48.759Z,4.43
2017-06-21T13:25:16.944Z,4.40
2017-06-21T13:27:45.345Z,3.78
2017-06-21T13:30:12.834Z,4.20
2017-06-21T13:32:40.386Z,4.20
2017-06-21T13:35:07.921Z,4.22
2017-06-21T13:37:35.435Z,3.97
2017-06-21T13:40:02.924Z,5.20
2017-06-21T13:42:30.448Z,5.12
2017-06-21T13:44:57.944Z,4.80
2017-06-21T13:47:25.493Z,5.18
2017-06-21T13:49:53.064Z,4.97
2017-06-21T13:52:20.552Z,4.82
2017-06-21T13:54:48.217Z,4.43
2017-06-21T13:57:15.788Z,4.30
2017-06-21T13:59:43.319Z,4.60
2017-06-21T14:02:10.870Z,4.05
2017-06-21T14:04:38.439Z,4.53
2017-06-21T14:07:05.942Z,5.47
2017-06-21T14:09:33.714Z,5.25
2017-06-21T14:12:01.652Z,4.22
2017-06-21T14:14:29.715Z,4.53
2017-06-21T14:16:57.282Z,4.57
2017-06-21T14:19:25.489Z,5.50
2017-06-21T14:21:53.792Z,4.95
2017-06-21T14:24:21.350Z,4.70
2017-06-21T14:26:48.868Z,5.20
2017-06-21T14:29:16.424Z,5.37
2017-06-21T14:31:43.991Z,4.45
2017-06-21T14:34:11.504Z,4.00
2017-06-21T14:36:39.230Z,4.00
2017-06-21T14:39:06.743Z,4.35
2017-06-21T14:41:34.288Z,4.43
2017-06-21T14:44:01.833Z,4.62
2017-06-21T14:46:29.352Z,4.20
2017-06-21T14:48:56.951Z,4.22
2017-06-21T14:51:24.667Z,4.03
2017-06-21T14:53:52.303Z,4.05
2017-06-21T14:56:20.066Z,3.83
2017-06-21T14:58:47.828Z,3.70
2017-06-21T15:01:23.029Z,4.53
2017-06-21T15:03:52.115Z,3.87
2017-06-21T15:06:20.107Z,3.53
2017-06-21T15:08:48.413Z,4.28
2017-06-21T15:11:16.766Z,3.90
2017-06-21T15:13:44.367Z,4.47
2017-06-21T15:16:11.857Z,4.95
2017-06-21T15:18:39.551Z,4.45
2017-06-21T15:21:07.206Z,5.20
2017-06-21T15:23:36.401Z,5.00
2017-06-21T15:26:03.898Z,5.22
2017-06-21T15:28:31.635Z,4.50
2017-06-21T15:30:59.127Z,4.18
2017-06-21T15:33:26.651Z,4.60
2017-06-21T15:35:55.154Z,4.60
2017-06-21T15:38:23.099Z,5.22
2017-06-21T15:40:52.248Z,4.80
2017-06-21T15:43:19.736Z,4.95
2017-06-21T15:45:47.748Z,5.37
2017-06-21T15:48:15.259Z,4.53
2017-06-21T15:50:42.785Z,4.70
2017-06-21T15:53:10.270Z,4.32
2017-06-21T15:55:37.756Z,4.57
2017-06-21T15:58:05.266Z,4.07
2017-06-21T16:00:33.459Z,4.12
2017-06-21T16:03:01.630Z,4.10
2017-06-21T16:05:29.302Z,4.68
2017-06-21T16:07:57.587Z,4.22
2017-06-21T16:10:25.920Z,4.10
2017-06-21T16:12:53.447Z,4.20
2017-06-21T16:15:20.940Z,4.90
2017-06-21T16:17:49.040Z,4.05
2017-06-21T16:20:17.531Z,3.87
2017-06-21T16:22:45.019Z,4.40
2017-06-21T16:25:12.596Z,3.70
2017-06-21T16:27:40.443Z,4.70
2017-06-21T16:30:07.955Z,4.12
2017-06-21T16:32:36.220Z,4.87
2017-06-21T16:35:03.732Z,4.20
2017-06-21T16:37:31.487Z,4.28
2017-06-21T16:39:59.081Z,3.75
2017-06-21T16:42:27.047Z,4.12
2017-06-21T16:44:54.655Z,3.65
2017-06-21T16:47:22.159Z,3.72
2017-06-21T16:49:49.650Z,3.67
2017-06-21T16:52:17.185Z,2.92
2017-06-21T16:54:44.759Z,3.40
2017-06-21T16:57:12.312Z,2.97
2017-06-21T16:59:40.813Z,3.30
2017-06-21T17:02:08.342Z,3.10
2017-06-21T17:04:36.826Z,3.35
2017-06-21T17:07:05.076Z,3.70
2017-06-21T17:09:32.604Z,3.95
2017-06-21T17:12:00.391Z,4.37
2017-06-21T17:14:28.227Z,3.87
2017-06-21T17:16:55.779Z,4.00
2017-06-21T17:19:23.787Z,2.97
2017-06-21T17:21:51.291Z,2.72
2017-06-21T17:24:19.519Z,2.62
2017-06-21T17:26:47.033Z,2.53
2017-06-21T17:29:14.520Z,3.05
2017-06-21T17:31:42.079Z,2.62
2017-06-21T17:34:09.587Z,2.80
2017-06-21T17:36:37.095Z,2.62
2017-06-21T17:39:04.851Z,3.28
2017-06-21T17:41:32.357Z,3.05
2017-06-21T17:43:59.991Z,2.72
2017-06-21T17:46:28.246Z,2.90
2017-06-21T17:48:55.926Z,2.55
2017-06-21T17:51:24.185Z,2.75
2017-06-21T17:53:51.731Z,3.83
2017-06-21T17:56:19.267Z,3.05
2017-06-21T17:58:46.874Z,3.30
2017-06-21T18:01:15.127Z,2.83
2017-06-21T18:03:42.691Z,3.00
2017-06-21T18:06:10.599Z,3.53
2017-06-21T18:08:38.087Z,3.55
2017-06-21T18:11:05.656Z,3.10
2017-06-21T18:13:33.195Z,3.45
2017-06-21T18:16:00.752Z,4.40
2017-06-21T18:18:28.514Z,3.58
2017-06-21T18:20:56.071Z,3.05
2017-06-21T18:23:23.603Z,3.55
2017-06-21T18:25:51.334Z,3.75
2017-06-21T18:28:19.830Z,4.25
2017-06-21T18:30:47.431Z,2.95
2017-06-21T18:33:14.963Z,3.05
2017-06-21T18:35:42.763Z,3.17
2017-06-21T18:38:10.314Z,3.58
2017-06-21T18:40:37.840Z,2.78
2017-06-21T18:43:05.615Z,3.47
2017-06-21T18:45:33.103Z,2.97
2017-06-21T18:48:00.664Z,4.10
2017-06-21T18:50:28.187Z,2.80
2017-06-21T18:52:55.729Z,3.40
2017-06-21T18:55:24.548Z,3.40
2017-06-21T18:57:52.068Z,2.70
2017-06-21T19:00:19.638Z,3.72
2017-06-21T19:02:47.177Z,3.58
2017-06-21T19:05:14.676Z,3.28
2017-06-21T19:07:42.522Z,2.95
2017-06-21T19:10:10.086Z,2.90
2017-06-21T19:12:37.587Z,2.95
2017-06-21T19:15:05.897Z,3.67
2017-06-21T19:17:33.779Z,2.90
2017-06-21T19:20:01.265Z,2.70
2017-06-21T19:22:28.840Z,3.30
2017-06-21T19:24:57.090Z,2.62
2017-06-21T19:27:24.982Z,2.60
2017-06-21T19:29:53.251Z,3.17
2017-06-21T19:32:21.870Z,2.78
2017-06-21T19:34:50.265Z,3.35
2017-06-21T19:37:17.805Z,3.95
2017-06-21T19:39:45.715Z,3.28
2017-06-21T19:42:13.632Z,3.12
2017-06-21T19:44:41.178Z,3.47
2017-06-21T19:47:08.967Z,3.35
2017-06-21T19:49:36.574Z,3.30
2017-06-21T19:52:05.511Z,3.12
2017-06-21T19:54:34.370Z,3.60
2017-06-21T19:57:03.291Z,3.30
2017-06-21T19:59:32.814Z,3.10
2017-06-21T20:02:01.674Z,3.30
2017-06-21T20:04:30.763Z,3.00
2017-06-21T20:06:59.646Z,3.72
2017-06-21T20:09:28.643Z,3.45
2017-06-21T20:11:57.602Z,3.20
2017-06-21T20:14:26.794Z,2.85
2017-06-21T20:16:55.708Z,3.60
2017-06-21T20:19:24.634Z,4.10
2017-06-21T20:21:53.728Z,3.05
2017-06-21T20:24:22.918Z,3.58
2017-06-21T20:26:51.796Z,3.67
2017-06-21T20:29:20.702Z,3.95
2017-06-21T20:31:49.767Z,4.00
2017-06-21T20:34:18.740Z,4.18
2017-06-21T20:36:47.903Z,3.47
2017-06-21T20:39:16.814Z,3.50
2017-06-21T20:41:45.695Z,4.07
2017-06-21T20:44:14.582Z,3.30
2017-06-21T20:46:43.447Z,3.70
2017-06-21T20:49:12.407Z,4.00
2017-06-21T20:51:41.262Z,3.20
2017-06-21T20:54:10.128Z,3.90
2017-06-21T20:56:40.211Z,4.07
2017-06-21T20:59:09.133Z,3.60
2017-06-21T21:01:38.295Z,3.78
2017-06-21T21:04:07.385Z,4.05
2017-06-21T21:06:36.270Z,4.00
2017-06-21T21:09:06.461Z,4.62
2017-06-21T21:11:35.354Z,3.78
2017-06-21T21:14:04.337Z,3.60
2017-06-21T21:16:33.469Z,4.22
2017-06-21T21:19:02.560Z,4.03
2017-06-21T21:21:31.443Z,3.72
2017-06-21T21:24:00.762Z,4.50
2017-06-21T21:26:30.243Z,4.18
2017-06-21T21:28:59.131Z,4.10
2017-06-21T21:31:28.081Z,4.43
2017-06-21T21:33:57.322Z,4.15
2017-06-21T21:36:26.192Z,3.95
2017-06-21T21:38:55.027Z,4.12
2017-06-21T21:41:24.342Z,4.25
2017-06-21T21:43:53.174Z,3.92
2017-06-21T21:46:22.278Z,4.18
2017-06-21T21:48:51.476Z,3.83
2017-06-21T21:51:20.561Z,4.40
2017-06-21T21:53:49.614Z,4.45
2017-06-21T21:56:18.698Z,4.22
2017-06-21T21:58:47.574Z,3.83
2017-06-21T22:01:16.411Z,3.70
2017-06-21T22:03:45.489Z,3.65
2017-06-21T22:06:14.357Z,3.67
2017-06-21T22:08:43.502Z,4.53
2017-06-21T22:11:12.538Z,3.90
2017-06-21T22:13:41.426Z,4.30
2017-06-21T22:16:10.298Z,4.37
2017-06-21T22:18:39.127Z,3.95
2017-06-21T22:21:08.015Z,4.07
2017-06-21T22:23:36.891Z,4.10
2017-06-21T22:26:05.813Z,4.65
2017-06-21T22:28:33.322Z,3.85
2017-06-21T22:31:01.848Z,4.00
2017-06-21T22:33:30.553Z,3.90
2017-06-21T22:35:58.886Z,3.87
2017-06-21T22:38:26.546Z,3.40
2017-06-21T22:40:54.102Z,4.57
2017-06-21T22:43:21.702Z,4.00
2017-06-21T22:45:49.232Z,4.18
2017-06-21T22:48:19.054Z,4.70
2017-06-21T22:50:46.582Z,4.50
2017-06-21T22:53:14.163Z,4.65
2017-06-21T22:55:43.066Z,4.90
2017-06-21T22:58:11.930Z,4.70
2017-06-21T23:00:40.790Z,5.32
2017-06-21T23:03:09.682Z,4.53
2017-06-21T23:05:38.534Z,5.57
2017-06-21T23:08:07.658Z,5.62
2017-06-21T23:10:36.807Z,5.32
2017-06-21T23:13:05.971Z,5.05
2017-06-21T23:15:35.358Z,5.35
2017-06-21T23:18:04.437Z,5.50
2017-06-21T23:20:33.274Z,6.05
2017-06-21T23:23:02.163Z,6.15
2017-06-21T23:25:31.114Z,6.43
2017-06-21T23:28:00.002Z,6.18
2017-06-21T23:30:28.888Z,7.43
2017-06-21T23:32:57.922Z,6.30
2017-06-21T23:35:26.821Z,7.62
2017-06-21T23:37:55.710Z,5.80
2017-06-21T23:40:24.850Z,6.22
2017-06-21T23:42:53.719Z,5.90
2017-06-21T23:45:22.590Z,6.03
2017-06-21T23:47:51.446Z,6.15
2017-06-21T23:50:20.326Z,6.28
2017-06-21T23:52:49.545Z,5.95
2017-06-21T23:55:18.428Z,6.30
2017-06-21T23:57:47.466Z,6.37
